This is the latest recevied weather packets stored in our database for station/object N2PUI. If no packets are shown the sender has not sent any weather packets the latest 10 day(s).
| Time | Temp. | Humidity | Pressure | Rain* | Wind** | Luminosity | Snow |
|---|---|---|---|---|---|---|---|
| 1777957315 | 16.67° C | 53% | 1007.3 hPa | 0 mm | - | 0 W/m² | - |
| 1777957010 | 16.67° C | 52% | 1007.5 hPa | 0 mm | - | 0 W/m² | - |
| 1777956708 | 17.22° C | 52% | 1007.5 hPa | 0 mm | - | 0 W/m² | - |
| 1777956405 | 16.67° C | 52% | 1007.5 hPa | 0 mm | - | 0 W/m² | - |
| 1777956102 | 16.67° C | 53% | 1007.5 hPa | 0 mm | - | 0 W/m² | - |
| 1777955798 | 16.67° C | 52% | 1007.4 hPa | 0 mm | - | 0 W/m² | - |
| 1777955495 | 16.67° C | 53% | 1007.4 hPa | 0 mm | - | 0 W/m² | - |
| 1777955191 | 17.22° C | 52% | 1007.3 hPa | 0 mm | - | 0 W/m² | - |
| 1777954889 | 17.22° C | 52% | 1007.2 hPa | 0 mm | - | 0 W/m² | - |
| 1777954585 | 17.22° C | 51% | 1007 hPa | 0 mm | - | 0 W/m² | - |
| 1777954283 | 17.22° C | 51% | 1006.9 hPa | 0 mm | - | 0 W/m² | - |
| 1777953979 | 17.22° C | 51% | 1007.1 hPa | 0 mm | - | 0 W/m² | - |
| 1777953677 | 17.22° C | 51% | 1007.1 hPa | 0 mm | - | 0 W/m² | - |
| 1777953373 | 17.22° C | 50% | 1007.1 hPa | 0 mm | - | 0 W/m² | - |
| 1777943673 | 18.33° C | 46% | 1007.2 hPa | 0 mm | - | 0 W/m² | - |
| 1777943371 | 18.33° C | 45% | 1006.9 hPa | 0 mm | - | 0 W/m² | - |
| 1777943066 | 18.33° C | 45% | 1006.9 hPa | 0 mm | - | 0 W/m² | - |
| 1777942460 | 18.89° C | 44% | 1006.7 hPa | 0 mm | - | 0 W/m² | - |
| 1777941248 | 19.44° C | 43% | 1006.7 hPa | 0 mm | - | 0 W/m² | - |
| 1777940036 | 19.44° C | 42% | 1006.3 hPa | 0 mm | - | 0 W/m² | - |
| 1777939733 | 19.44° C | 42% | 1006.3 hPa | 0 mm | - | 0 W/m² | - |
| 1777939430 | 20° C | 42% | 1006.4 hPa | 0 mm | - | 3 W/m² | - |
| 1777934277 | 22.22° C | 33% | 1005.7 hPa | 0 mm | - | 138 W/m² | - |
| 1777933973 | 22.22° C | 31% | 1006 hPa | 0 mm | - | 157 W/m² | - |
| 1777933670 | 22.22° C | 32% | 1006 hPa | 0 mm | - | 173 W/m² | - |
* Rain latest hour (hover to see other rain measurements)
** Current wind speed in m/s (hover to see current wind gust speed)